sensor_id;sensor_type;location;lat;lon;timestamp;P1;durP1;ratioP1;P2;durP2;ratioP2
16502;SDS011;53067;48.114;11.694;2023-01-23T00:01:26;19.20;;;12.20;;
16502;SDS011;53067;48.114;11.694;2023-01-23T00:03:55;24.07;;;12.67;;
16502;SDS011;53067;48.114;11.694;2023-01-23T00:06:23;20.97;;;13.20;;
16502;SDS011;53067;48.114;11.694;2023-01-23T00:08:51;17.30;;;11.10;;
16502;SDS011;53067;48.114;11.694;2023-01-23T00:11:22;21.77;;;12.50;;
16502;SDS011;53067;48.114;11.694;2023-01-23T00:13:52;21.03;;;11.50;;
16502;SDS011;53067;48.114;11.694;2023-01-23T00:16:20;19.57;;;11.87;;
16502;SDS011;53067;48.114;11.694;2023-01-23T00:18:49;18.33;;;11.23;;
16502;SDS011;53067;48.114;11.694;2023-01-23T00:21:19;21.40;;;12.37;;
16502;SDS011;53067;48.114;11.694;2023-01-23T00:23:49;21.13;;;11.73;;
16502;SDS011;53067;48.114;11.694;2023-01-23T00:26:23;20.73;;;11.87;;
16502;SDS011;53067;48.114;11.694;2023-01-23T00:28:51;22.37;;;12.77;;
16502;SDS011;53067;48.114;11.694;2023-01-23T00:31:21;18.87;;;11.07;;
16502;SDS011;53067;48.114;11.694;2023-01-23T00:33:54;20.87;;;11.33;;
16502;SDS011;53067;48.114;11.694;2023-01-23T00:36:24;19.60;;;11.57;;
16502;SDS011;53067;48.114;11.694;2023-01-23T00:38:57;20.50;;;11.97;;
16502;SDS011;53067;48.114;11.694;2023-01-23T00:41:25;16.87;;;10.53;;
16502;SDS011;53067;48.114;11.694;2023-01-23T00:43:53;19.43;;;12.13;;
16502;SDS011;53067;48.114;11.694;2023-01-23T00:46:21;18.53;;;11.23;;
16502;SDS011;53067;48.114;11.694;2023-01-23T00:48:49;21.40;;;12.93;;
16502;SDS011;53067;48.114;11.694;2023-01-23T00:51:17;18.93;;;11.70;;
16502;SDS011;53067;48.114;11.694;2023-01-23T00:53:45;19.37;;;11.40;;
16502;SDS011;53067;48.114;11.694;2023-01-23T00:56:12;21.43;;;11.70;;
16502;SDS011;53067;48.114;11.694;2023-01-23T00:58:40;19.90;;;11.53;;
16502;SDS011;53067;48.114;11.694;2023-01-23T01:01:07;18.67;;;12.10;;
16502;SDS011;53067;48.114;11.694;2023-01-23T01:03:35;18.20;;;12.00;;
16502;SDS011;53067;48.114;11.694;2023-01-23T01:06:03;21.07;;;11.97;;
16502;SDS011;53067;48.114;11.694;2023-01-23T01:08:31;21.03;;;12.27;;
16502;SDS011;53067;48.114;11.694;2023-01-23T01:10:59;21.87;;;11.70;;
16502;SDS011;53067;48.114;11.694;2023-01-23T01:13:26;22.20;;;12.30;;
16502;SDS011;53067;48.114;11.694;2023-01-23T01:15:56;21.30;;;12.87;;
16502;SDS011;53067;48.114;11.694;2023-01-23T01:18:26;18.00;;;11.90;;
16502;SDS011;53067;48.114;11.694;2023-01-23T01:20:54;20.87;;;11.57;;
16502;SDS011;53067;48.114;11.694;2023-01-23T01:23:22;18.90;;;11.37;;
16502;SDS011;53067;48.114;11.694;2023-01-23T01:25:50;20.17;;;12.33;;
16502;SDS011;53067;48.114;11.694;2023-01-23T01:28:17;18.50;;;11.80;;
16502;SDS011;53067;48.114;11.694;2023-01-23T01:30:45;19.00;;;11.57;;
16502;SDS011;53067;48.114;11.694;2023-01-23T01:33:13;20.17;;;11.60;;
16502;SDS011;53067;48.114;11.694;2023-01-23T01:35:40;20.47;;;11.83;;
16502;SDS011;53067;48.114;11.694;2023-01-23T01:38:08;19.37;;;11.70;;
16502;SDS011;53067;48.114;11.694;2023-01-23T01:40:36;21.23;;;12.47;;
16502;SDS011;53067;48.114;11.694;2023-01-23T01:43:05;23.07;;;12.37;;
16502;SDS011;53067;48.114;11.694;2023-01-23T01:48:23;22.17;;;12.70;;
16502;SDS011;53067;48.114;11.694;2023-01-23T01:50:53;19.40;;;10.97;;
16502;SDS011;53067;48.114;11.694;2023-01-23T01:53:21;19.63;;;12.50;;
16502;SDS011;53067;48.114;11.694;2023-01-23T01:55:50;17.90;;;11.83;;
16502;SDS011;53067;48.114;11.694;2023-01-23T01:58:19;23.47;;;12.87;;
16502;SDS011;53067;48.114;11.694;2023-01-23T02:00:46;21.87;;;13.20;;
16502;SDS011;53067;48.114;11.694;2023-01-23T02:03:15;22.00;;;12.90;;
16502;SDS011;53067;48.114;11.694;2023-01-23T02:05:45;18.93;;;12.30;;
16502;SDS011;53067;48.114;11.694;2023-01-23T02:10:54;22.97;;;14.93;;
16502;SDS011;53067;48.114;11.694;2023-01-23T02:15:57;24.80;;;13.27;;
16502;SDS011;53067;48.114;11.694;2023-01-23T02:18:27;22.00;;;13.57;;
16502;SDS011;53067;48.114;11.694;2023-01-23T02:20:57;21.33;;;13.23;;
16502;SDS011;53067;48.114;11.694;2023-01-23T02:23:49;23.27;;;14.37;;
16502;SDS011;53067;48.114;11.694;2023-01-23T02:26:33;23.43;;;13.83;;
16502;SDS011;53067;48.114;11.694;2023-01-23T02:29:03;23.47;;;13.90;;
16502;SDS011;53067;48.114;11.694;2023-01-23T02:31:31;24.00;;;13.83;;
16502;SDS011;53067;48.114;11.694;2023-01-23T02:34:00;23.23;;;14.63;;
16502;SDS011;53067;48.114;11.694;2023-01-23T02:36:30;27.10;;;13.80;;
16502;SDS011;53067;48.114;11.694;2023-01-23T02:39:06;28.00;;;15.43;;
16502;SDS011;53067;48.114;11.694;2023-01-23T02:41:42;25.17;;;14.33;;
16502;SDS011;53067;48.114;11.694;2023-01-23T02:44:16;24.53;;;15.00;;
16502;SDS011;53067;48.114;11.694;2023-01-23T02:46:44;28.77;;;16.13;;
16502;SDS011;53067;48.114;11.694;2023-01-23T02:49:12;25.90;;;16.03;;
16502;SDS011;53067;48.114;11.694;2023-01-23T02:51:40;26.47;;;15.50;;
16502;SDS011;53067;48.114;11.694;2023-01-23T02:54:08;26.67;;;15.37;;
16502;SDS011;53067;48.114;11.694;2023-01-23T02:56:35;24.00;;;14.60;;
16502;SDS011;53067;48.114;11.694;2023-01-23T02:59:03;24.40;;;14.87;;
16502;SDS011;53067;48.114;11.694;2023-01-23T03:01:49;27.17;;;15.20;;
16502;SDS011;53067;48.114;11.694;2023-01-23T03:04:16;24.50;;;14.67;;
16502;SDS011;53067;48.114;11.694;2023-01-23T03:06:43;22.17;;;14.63;;
16502;SDS011;53067;48.114;11.694;2023-01-23T03:09:12;24.17;;;14.43;;
16502;SDS011;53067;48.114;11.694;2023-01-23T03:11:42;26.00;;;15.03;;
16502;SDS011;53067;48.114;11.694;2023-01-23T03:14:12;24.87;;;15.73;;
16502;SDS011;53067;48.114;11.694;2023-01-23T03:16:42;26.80;;;15.83;;
16502;SDS011;53067;48.114;11.694;2023-01-23T03:19:12;24.27;;;14.57;;
16502;SDS011;53067;48.114;11.694;2023-01-23T03:21:39;23.27;;;14.23;;
16502;SDS011;53067;48.114;11.694;2023-01-23T03:24:08;26.93;;;15.47;;
16502;SDS011;53067;48.114;11.694;2023-01-23T03:26:37;23.23;;;15.03;;
16502;SDS011;53067;48.114;11.694;2023-01-23T03:29:06;30.13;;;17.07;;
16502;SDS011;53067;48.114;11.694;2023-01-23T03:31:53;25.03;;;15.00;;
16502;SDS011;53067;48.114;11.694;2023-01-23T03:34:21;24.03;;;14.33;;
16502;SDS011;53067;48.114;11.694;2023-01-23T03:36:48;23.03;;;14.33;;
16502;SDS011;53067;48.114;11.694;2023-01-23T03:39:16;24.87;;;15.30;;
16502;SDS011;53067;48.114;11.694;2023-01-23T03:42:02;25.13;;;14.57;;
16502;SDS011;53067;48.114;11.694;2023-01-23T03:44:29;25.90;;;15.97;;
16502;SDS011;53067;48.114;11.694;2023-01-23T03:46:57;24.63;;;15.30;;
16502;SDS011;53067;48.114;11.694;2023-01-23T03:49:24;28.13;;;15.37;;
16502;SDS011;53067;48.114;11.694;2023-01-23T03:51:52;27.77;;;15.00;;
16502;SDS011;53067;48.114;11.694;2023-01-23T03:54:20;24.37;;;14.80;;
16502;SDS011;53067;48.114;11.694;2023-01-23T03:56:47;24.53;;;14.83;;
16502;SDS011;53067;48.114;11.694;2023-01-23T03:59:15;25.10;;;15.43;;
16502;SDS011;53067;48.114;11.694;2023-01-23T04:01:42;23.87;;;15.60;;
16502;SDS011;53067;48.114;11.694;2023-01-23T04:04:10;25.10;;;15.10;;
16502;SDS011;53067;48.114;11.694;2023-01-23T04:06:37;24.27;;;14.90;;
16502;SDS011;53067;48.114;11.694;2023-01-23T04:09:05;23.90;;;14.90;;
16502;SDS011;53067;48.114;11.694;2023-01-23T04:11:32;24.53;;;15.47;;
16502;SDS011;53067;48.114;11.694;2023-01-23T04:14:00;24.27;;;14.17;;
16502;SDS011;53067;48.114;11.694;2023-01-23T04:16:27;24.77;;;15.17;;
16502;SDS011;53067;48.114;11.694;2023-01-23T04:18:55;24.30;;;14.53;;
16502;SDS011;53067;48.114;11.694;2023-01-23T04:21:22;24.87;;;15.07;;
16502;SDS011;53067;48.114;11.694;2023-01-23T04:23:50;24.37;;;14.77;;
16502;SDS011;53067;48.114;11.694;2023-01-23T04:26:17;21.87;;;14.03;;
16502;SDS011;53067;48.114;11.694;2023-01-23T04:28:45;21.47;;;13.33;;
16502;SDS011;53067;48.114;11.694;2023-01-23T04:31:12;22.50;;;14.27;;
16502;SDS011;53067;48.114;11.694;2023-01-23T04:33:40;22.33;;;14.07;;
16502;SDS011;53067;48.114;11.694;2023-01-23T04:36:07;21.67;;;13.73;;
16502;SDS011;53067;48.114;11.694;2023-01-23T04:38:36;20.70;;;13.07;;
16502;SDS011;53067;48.114;11.694;2023-01-23T04:41:03;23.60;;;14.67;;
16502;SDS011;53067;48.114;11.694;2023-01-23T04:43:31;19.70;;;13.20;;
16502;SDS011;53067;48.114;11.694;2023-01-23T04:46:00;23.47;;;14.90;;
16502;SDS011;53067;48.114;11.694;2023-01-23T04:48:28;24.00;;;13.97;;
16502;SDS011;53067;48.114;11.694;2023-01-23T04:50:55;23.20;;;13.83;;
16502;SDS011;53067;48.114;11.694;2023-01-23T04:53:23;21.83;;;13.93;;
16502;SDS011;53067;48.114;11.694;2023-01-23T04:55:50;26.77;;;14.97;;
16502;SDS011;53067;48.114;11.694;2023-01-23T04:58:18;22.57;;;13.83;;
16502;SDS011;53067;48.114;11.694;2023-01-23T05:00:46;27.53;;;15.53;;
16502;SDS011;53067;48.114;11.694;2023-01-23T05:03:14;23.27;;;14.33;;
16502;SDS011;53067;48.114;11.694;2023-01-23T05:05:42;23.00;;;14.47;;
16502;SDS011;53067;48.114;11.694;2023-01-23T05:08:10;23.40;;;14.77;;
16502;SDS011;53067;48.114;11.694;2023-01-23T05:10:38;21.13;;;14.07;;
16502;SDS011;53067;48.114;11.694;2023-01-23T05:13:05;23.33;;;14.30;;
16502;SDS011;53067;48.114;11.694;2023-01-23T05:15:35;22.60;;;13.77;;
16502;SDS011;53067;48.114;11.694;2023-01-23T05:18:02;23.77;;;13.70;;
16502;SDS011;53067;48.114;11.694;2023-01-23T05:20:30;20.50;;;12.93;;
16502;SDS011;53067;48.114;11.694;2023-01-23T05:22:57;18.03;;;12.07;;
16502;SDS011;53067;48.114;11.694;2023-01-23T05:25:25;19.43;;;13.37;;
16502;SDS011;53067;48.114;11.694;2023-01-23T05:27:54;21.17;;;14.70;;
16502;SDS011;53067;48.114;11.694;2023-01-23T05:30:22;24.47;;;14.20;;
16502;SDS011;53067;48.114;11.694;2023-01-23T05:32:50;23.73;;;14.17;;
16502;SDS011;53067;48.114;11.694;2023-01-23T05:35:17;23.03;;;13.60;;
16502;SDS011;53067;48.114;11.694;2023-01-23T05:37:51;20.27;;;13.23;;
16502;SDS011;53067;48.114;11.694;2023-01-23T05:40:19;21.63;;;14.67;;
16502;SDS011;53067;48.114;11.694;2023-01-23T05:42:47;22.77;;;13.70;;
16502;SDS011;53067;48.114;11.694;2023-01-23T05:45:15;20.80;;;13.60;;
16502;SDS011;53067;48.114;11.694;2023-01-23T05:47:43;21.07;;;13.27;;
16502;SDS011;53067;48.114;11.694;2023-01-23T05:50:13;22.67;;;14.33;;
16502;SDS011;53067;48.114;11.694;2023-01-23T05:52:41;20.30;;;13.60;;
16502;SDS011;53067;48.114;11.694;2023-01-23T05:55:09;23.77;;;14.87;;
16502;SDS011;53067;48.114;11.694;2023-01-23T05:57:37;20.87;;;13.53;;
16502;SDS011;53067;48.114;11.694;2023-01-23T06:00:05;20.73;;;13.87;;
16502;SDS011;53067;48.114;11.694;2023-01-23T06:02:34;21.67;;;13.20;;
16502;SDS011;53067;48.114;11.694;2023-01-23T06:05:01;23.07;;;14.63;;
16502;SDS011;53067;48.114;11.694;2023-01-23T06:07:29;22.37;;;14.57;;
16502;SDS011;53067;48.114;11.694;2023-01-23T06:09:57;20.87;;;14.17;;
16502;SDS011;53067;48.114;11.694;2023-01-23T06:12:25;21.70;;;14.27;;
16502;SDS011;53067;48.114;11.694;2023-01-23T06:14:53;27.70;;;15.87;;
16502;SDS011;53067;48.114;11.694;2023-01-23T06:17:20;27.80;;;16.63;;
16502;SDS011;53067;48.114;11.694;2023-01-23T06:19:48;24.97;;;15.43;;
16502;SDS011;53067;48.114;11.694;2023-01-23T06:22:16;25.73;;;15.63;;
16502;SDS011;53067;48.114;11.694;2023-01-23T06:24:43;22.07;;;14.43;;
16502;SDS011;53067;48.114;11.694;2023-01-23T06:27:11;23.87;;;14.13;;
16502;SDS011;53067;48.114;11.694;2023-01-23T06:29:38;23.70;;;14.93;;
16502;SDS011;53067;48.114;11.694;2023-01-23T06:32:06;21.50;;;14.47;;
16502;SDS011;53067;48.114;11.694;2023-01-23T06:34:34;22.13;;;14.27;;
16502;SDS011;53067;48.114;11.694;2023-01-23T06:37:02;24.33;;;14.83;;
16502;SDS011;53067;48.114;11.694;2023-01-23T06:39:30;23.30;;;15.20;;
16502;SDS011;53067;48.114;11.694;2023-01-23T06:41:58;23.40;;;14.30;;
16502;SDS011;53067;48.114;11.694;2023-01-23T06:44:26;25.83;;;15.43;;
16502;SDS011;53067;48.114;11.694;2023-01-23T06:46:54;24.80;;;14.70;;
16502;SDS011;53067;48.114;11.694;2023-01-23T06:49:21;27.17;;;16.83;;
16502;SDS011;53067;48.114;11.694;2023-01-23T06:51:49;26.13;;;16.07;;
16502;SDS011;53067;48.114;11.694;2023-01-23T06:54:16;25.47;;;16.37;;
16502;SDS011;53067;48.114;11.694;2023-01-23T06:56:44;30.87;;;17.27;;
16502;SDS011;53067;48.114;11.694;2023-01-23T06:59:11;30.37;;;18.13;;
16502;SDS011;53067;48.114;11.694;2023-01-23T07:01:40;30.53;;;17.43;;
16502;SDS011;53067;48.114;11.694;2023-01-23T07:04:08;28.13;;;16.83;;
16502;SDS011;53067;48.114;11.694;2023-01-23T07:06:35;30.63;;;18.13;;
16502;SDS011;53067;48.114;11.694;2023-01-23T07:09:03;31.90;;;18.43;;
16502;SDS011;53067;48.114;11.694;2023-01-23T07:11:30;32.47;;;18.07;;
16502;SDS011;53067;48.114;11.694;2023-01-23T07:13:58;33.00;;;18.97;;
16502;SDS011;53067;48.114;11.694;2023-01-23T07:16:25;32.23;;;19.23;;
16502;SDS011;53067;48.114;11.694;2023-01-23T07:18:53;37.23;;;19.13;;
16502;SDS011;53067;48.114;11.694;2023-01-23T07:21:23;39.30;;;19.33;;
16502;SDS011;53067;48.114;11.694;2023-01-23T07:23:51;36.23;;;20.63;;
16502;SDS011;53067;48.114;11.694;2023-01-23T07:26:19;42.50;;;21.47;;
16502;SDS011;53067;48.114;11.694;2023-01-23T07:28:46;36.73;;;20.47;;
16502;SDS011;53067;48.114;11.694;2023-01-23T07:31:14;45.10;;;22.07;;
16502;SDS011;53067;48.114;11.694;2023-01-23T07:33:42;43.57;;;20.87;;
16502;SDS011;53067;48.114;11.694;2023-01-23T07:36:10;44.93;;;22.07;;
16502;SDS011;53067;48.114;11.694;2023-01-23T07:38:39;46.23;;;22.53;;
16502;SDS011;53067;48.114;11.694;2023-01-23T07:41:07;44.73;;;22.20;;
16502;SDS011;53067;48.114;11.694;2023-01-23T07:43:35;45.33;;;22.13;;
16502;SDS011;53067;48.114;11.694;2023-01-23T07:46:02;47.50;;;22.47;;
16502;SDS011;53067;48.114;11.694;2023-01-23T07:48:30;41.60;;;20.77;;
16502;SDS011;53067;48.114;11.694;2023-01-23T07:51:00;50.73;;;24.13;;
16502;SDS011;53067;48.114;11.694;2023-01-23T07:53:27;49.63;;;22.43;;
16502;SDS011;53067;48.114;11.694;2023-01-23T07:55:55;48.33;;;22.20;;
16502;SDS011;53067;48.114;11.694;2023-01-23T07:58:23;50.77;;;22.67;;
16502;SDS011;53067;48.114;11.694;2023-01-23T08:00:50;43.70;;;20.80;;
16502;SDS011;53067;48.114;11.694;2023-01-23T08:03:18;54.20;;;22.30;;
16502;SDS011;53067;48.114;11.694;2023-01-23T08:05:48;44.43;;;21.30;;
16502;SDS011;53067;48.114;11.694;2023-01-23T08:08:16;42.90;;;20.43;;
16502;SDS011;53067;48.114;11.694;2023-01-23T08:10:43;48.47;;;20.90;;
16502;SDS011;53067;48.114;11.694;2023-01-23T08:13:11;41.30;;;20.97;;
16502;SDS011;53067;48.114;11.694;2023-01-23T08:15:39;44.33;;;21.43;;
16502;SDS011;53067;48.114;11.694;2023-01-23T08:18:06;39.23;;;20.63;;
16502;SDS011;53067;48.114;11.694;2023-01-23T08:20:33;36.53;;;18.57;;
16502;SDS011;53067;48.114;11.694;2023-01-23T08:23:01;40.17;;;20.00;;
16502;SDS011;53067;48.114;11.694;2023-01-23T08:25:29;36.03;;;18.90;;
16502;SDS011;53067;48.114;11.694;2023-01-23T08:27:56;36.87;;;19.73;;
16502;SDS011;53067;48.114;11.694;2023-01-23T08:30:24;39.10;;;20.00;;
16502;SDS011;53067;48.114;11.694;2023-01-23T08:32:51;43.23;;;21.87;;
16502;SDS011;53067;48.114;11.694;2023-01-23T08:35:19;36.73;;;19.33;;
16502;SDS011;53067;48.114;11.694;2023-01-23T08:37:46;42.07;;;20.03;;
16502;SDS011;53067;48.114;11.694;2023-01-23T08:40:14;40.13;;;20.47;;
16502;SDS011;53067;48.114;11.694;2023-01-23T08:42:42;36.57;;;20.23;;
16502;SDS011;53067;48.114;11.694;2023-01-23T08:45:09;40.67;;;20.03;;
16502;SDS011;53067;48.114;11.694;2023-01-23T08:47:37;38.70;;;19.30;;
16502;SDS011;53067;48.114;11.694;2023-01-23T08:50:05;40.40;;;20.40;;
16502;SDS011;53067;48.114;11.694;2023-01-23T08:52:33;39.93;;;20.67;;
16502;SDS011;53067;48.114;11.694;2023-01-23T08:55:00;39.00;;;20.70;;
16502;SDS011;53067;48.114;11.694;2023-01-23T08:57:28;41.67;;;20.03;;
16502;SDS011;53067;48.114;11.694;2023-01-23T08:59:56;36.10;;;20.13;;
16502;SDS011;53067;48.114;11.694;2023-01-23T09:02:23;42.27;;;19.07;;
16502;SDS011;53067;48.114;11.694;2023-01-23T09:04:51;36.23;;;19.43;;
16502;SDS011;53067;48.114;11.694;2023-01-23T09:07:18;37.40;;;19.37;;
16502;SDS011;53067;48.114;11.694;2023-01-23T09:09:46;38.23;;;18.93;;
16502;SDS011;53067;48.114;11.694;2023-01-23T09:12:13;33.33;;;18.03;;
16502;SDS011;53067;48.114;11.694;2023-01-23T09:14:41;36.07;;;18.57;;
16502;SDS011;53067;48.114;11.694;2023-01-23T09:17:08;31.10;;;17.37;;
16502;SDS011;53067;48.114;11.694;2023-01-23T09:19:36;28.20;;;17.60;;
16502;SDS011;53067;48.114;11.694;2023-01-23T09:22:03;30.70;;;17.53;;
16502;SDS011;53067;48.114;11.694;2023-01-23T09:24:31;31.70;;;18.70;;
16502;SDS011;53067;48.114;11.694;2023-01-23T09:26:58;31.57;;;18.43;;
16502;SDS011;53067;48.114;11.694;2023-01-23T09:29:26;33.73;;;18.07;;
16502;SDS011;53067;48.114;11.694;2023-01-23T09:31:53;33.77;;;18.30;;
16502;SDS011;53067;48.114;11.694;2023-01-23T09:34:21;30.17;;;17.23;;
16502;SDS011;53067;48.114;11.694;2023-01-23T09:36:48;32.30;;;17.47;;
16502;SDS011;53067;48.114;11.694;2023-01-23T09:39:16;35.93;;;18.67;;
16502;SDS011;53067;48.114;11.694;2023-01-23T09:41:43;41.37;;;21.23;;
16502;SDS011;53067;48.114;11.694;2023-01-23T09:44:19;32.93;;;18.23;;
16502;SDS011;53067;48.114;11.694;2023-01-23T09:46:52;30.87;;;17.87;;
16502;SDS011;53067;48.114;11.694;2023-01-23T09:52:14;31.13;;;16.57;;
16502;SDS011;53067;48.114;11.694;2023-01-23T09:57:25;31.03;;;17.80;;
16502;SDS011;53067;48.114;11.694;2023-01-23T10:00:00;33.43;;;17.97;;
16502;SDS011;53067;48.114;11.694;2023-01-23T10:02:39;28.73;;;16.43;;
16502;SDS011;53067;48.114;11.694;2023-01-23T10:05:12;30.60;;;17.37;;
16502;SDS011;53067;48.114;11.694;2023-01-23T10:10:48;29.10;;;16.93;;
16502;SDS011;53067;48.114;11.694;2023-01-23T10:16:31;27.13;;;16.97;;
16502;SDS011;53067;48.114;11.694;2023-01-23T10:19:06;26.97;;;16.80;;
16502;SDS011;53067;48.114;11.694;2023-01-23T10:26:46;33.73;;;17.53;;
16502;SDS011;53067;48.114;11.694;2023-01-23T10:32:02;29.80;;;18.27;;
16502;SDS011;53067;48.114;11.694;2023-01-23T10:34:33;27.07;;;16.90;;
16502;SDS011;53067;48.114;11.694;2023-01-23T10:40:13;31.30;;;17.77;;
16502;SDS011;53067;48.114;11.694;2023-01-23T10:42:44;30.93;;;17.57;;
16502;SDS011;53067;48.114;11.694;2023-01-23T10:45:16;30.23;;;16.93;;
16502;SDS011;53067;48.114;11.694;2023-01-23T10:47:45;28.43;;;16.90;;
16502;SDS011;53067;48.114;11.694;2023-01-23T10:50:14;28.40;;;17.27;;
16502;SDS011;53067;48.114;11.694;2023-01-23T10:52:42;25.77;;;16.27;;
16502;SDS011;53067;48.114;11.694;2023-01-23T10:57:54;27.23;;;16.33;;
16502;SDS011;53067;48.114;11.694;2023-01-23T11:14:06;25.90;;;15.07;;
16502;SDS011;53067;48.114;11.694;2023-01-23T11:16:32;28.93;;;16.83;;
16502;SDS011;53067;48.114;11.694;2023-01-23T11:19:09;27.07;;;16.50;;
16502;SDS011;53067;48.114;11.694;2023-01-23T11:21:35;26.50;;;15.93;;
16502;SDS011;53067;48.114;11.694;2023-01-23T11:24:26;28.63;;;16.37;;
16502;SDS011;53067;48.114;11.694;2023-01-23T11:26:59;29.00;;;16.73;;
16502;SDS011;53067;48.114;11.694;2023-01-23T11:29:41;30.40;;;17.27;;
16502;SDS011;53067;48.114;11.694;2023-01-23T11:32:07;27.47;;;16.93;;
16502;SDS011;53067;48.114;11.694;2023-01-23T11:34:41;28.83;;;17.23;;
16502;SDS011;53067;48.114;11.694;2023-01-23T11:37:27;28.27;;;17.00;;
16502;SDS011;53067;48.114;11.694;2023-01-23T11:40:04;30.00;;;17.17;;
16502;SDS011;53067;48.114;11.694;2023-01-23T11:42:32;27.23;;;16.77;;
16502;SDS011;53067;48.114;11.694;2023-01-23T11:45:07;25.67;;;15.73;;
16502;SDS011;53067;48.114;11.694;2023-01-23T11:50:46;27.83;;;16.73;;
16502;SDS011;53067;48.114;11.694;2023-01-23T11:58:41;26.07;;;16.67;;
16502;SDS011;53067;48.114;11.694;2023-01-23T12:01:17;26.57;;;15.87;;
16502;SDS011;53067;48.114;11.694;2023-01-23T12:03:54;29.57;;;17.50;;
16502;SDS011;53067;48.114;11.694;2023-01-23T12:06:37;26.67;;;17.07;;
16502;SDS011;53067;48.114;11.694;2023-01-23T12:09:14;27.90;;;17.60;;
16502;SDS011;53067;48.114;11.694;2023-01-23T12:14:29;24.33;;;16.50;;
16502;SDS011;53067;48.114;11.694;2023-01-23T12:22:32;23.17;;;15.27;;
16502;SDS011;53067;48.114;11.694;2023-01-23T12:31:15;24.73;;;15.57;;
16502;SDS011;53067;48.114;11.694;2023-01-23T12:36:52;25.40;;;15.50;;
16502;SDS011;53067;48.114;11.694;2023-01-23T12:42:12;24.07;;;15.60;;
16502;SDS011;53067;48.114;11.694;2023-01-23T12:45:00;23.53;;;15.30;;
16502;SDS011;53067;48.114;11.694;2023-01-23T12:47:26;23.90;;;14.97;;
16502;SDS011;53067;48.114;11.694;2023-01-23T12:49:55;23.50;;;14.90;;
16502;SDS011;53067;48.114;11.694;2023-01-23T12:52:29;21.33;;;14.20;;
16502;SDS011;53067;48.114;11.694;2023-01-23T12:58:33;24.40;;;15.20;;
16502;SDS011;53067;48.114;11.694;2023-01-23T13:12:22;22.40;;;14.77;;
16502;SDS011;53067;48.114;11.694;2023-01-23T13:14:52;28.47;;;16.50;;
16502;SDS011;53067;48.114;11.694;2023-01-23T13:17:28;28.37;;;16.67;;
16502;SDS011;53067;48.114;11.694;2023-01-23T13:26:12;23.27;;;14.60;;
16502;SDS011;53067;48.114;11.694;2023-01-23T13:31:37;24.37;;;15.47;;
16502;SDS011;53067;48.114;11.694;2023-01-23T13:36:49;24.47;;;14.87;;
16502;SDS011;53067;48.114;11.694;2023-01-23T13:39:28;21.13;;;15.23;;
16502;SDS011;53067;48.114;11.694;2023-01-23T13:42:31;25.40;;;15.13;;
16502;SDS011;53067;48.114;11.694;2023-01-23T13:47:54;29.67;;;17.30;;
16502;SDS011;53067;48.114;11.694;2023-01-23T13:50:39;27.07;;;16.70;;
16502;SDS011;53067;48.114;11.694;2023-01-23T13:53:17;27.20;;;16.13;;
16502;SDS011;53067;48.114;11.694;2023-01-23T13:56:13;23.20;;;15.57;;
16502;SDS011;53067;48.114;11.694;2023-01-23T13:59:02;22.90;;;14.63;;
16502;SDS011;53067;48.114;11.694;2023-01-23T14:01:36;21.20;;;13.43;;
16502;SDS011;53067;48.114;11.694;2023-01-23T14:04:22;22.63;;;14.47;;
16502;SDS011;53067;48.114;11.694;2023-01-23T14:07:25;22.67;;;14.17;;
16502;SDS011;53067;48.114;11.694;2023-01-23T14:10:24;21.00;;;13.57;;
16502;SDS011;53067;48.114;11.694;2023-01-23T14:13:01;21.93;;;13.23;;
16502;SDS011;53067;48.114;11.694;2023-01-23T14:15:33;21.30;;;13.70;;
16502;SDS011;53067;48.114;11.694;2023-01-23T14:18:26;19.77;;;13.80;;
16502;SDS011;53067;48.114;11.694;2023-01-23T14:23:33;20.03;;;14.63;;
16502;SDS011;53067;48.114;11.694;2023-01-23T14:26:02;25.97;;;15.13;;
16502;SDS011;53067;48.114;11.694;2023-01-23T14:28:33;23.50;;;14.40;;
16502;SDS011;53067;48.114;11.694;2023-01-23T14:31:02;19.93;;;13.83;;
16502;SDS011;53067;48.114;11.694;2023-01-23T14:33:41;21.70;;;13.33;;
16502;SDS011;53067;48.114;11.694;2023-01-23T14:36:12;22.07;;;14.20;;
16502;SDS011;53067;48.114;11.694;2023-01-23T14:38:41;20.60;;;13.67;;
16502;SDS011;53067;48.114;11.694;2023-01-23T14:41:11;21.30;;;14.13;;
16502;SDS011;53067;48.114;11.694;2023-01-23T14:43:40;17.63;;;12.63;;
16502;SDS011;53067;48.114;11.694;2023-01-23T14:46:13;18.73;;;13.13;;
16502;SDS011;53067;48.114;11.694;2023-01-23T14:48:43;18.97;;;13.27;;
16502;SDS011;53067;48.114;11.694;2023-01-23T14:51:23;19.47;;;13.50;;
16502;SDS011;53067;48.114;11.694;2023-01-23T14:53:53;20.87;;;14.33;;
16502;SDS011;53067;48.114;11.694;2023-01-23T14:56:27;20.37;;;13.90;;
16502;SDS011;53067;48.114;11.694;2023-01-23T14:58:53;22.40;;;14.60;;
16502;SDS011;53067;48.114;11.694;2023-01-23T15:01:23;21.37;;;13.47;;
16502;SDS011;53067;48.114;11.694;2023-01-23T15:04:22;22.10;;;14.37;;
16502;SDS011;53067;48.114;11.694;2023-01-23T15:06:52;20.03;;;13.80;;
16502;SDS011;53067;48.114;11.694;2023-01-23T15:09:25;22.40;;;13.50;;
16502;SDS011;53067;48.114;11.694;2023-01-23T15:12:10;20.50;;;13.33;;
16502;SDS011;53067;48.114;11.694;2023-01-23T15:14:36;20.07;;;12.93;;
16502;SDS011;53067;48.114;11.694;2023-01-23T15:17:05;23.70;;;14.17;;
16502;SDS011;53067;48.114;11.694;2023-01-23T15:19:35;20.67;;;13.17;;
16502;SDS011;53067;48.114;11.694;2023-01-23T15:22:05;21.47;;;13.67;;
16502;SDS011;53067;48.114;11.694;2023-01-23T15:24:34;18.13;;;12.93;;
16502;SDS011;53067;48.114;11.694;2023-01-23T15:27:18;22.53;;;15.30;;
16502;SDS011;53067;48.114;11.694;2023-01-23T15:29:51;20.33;;;13.93;;
16502;SDS011;53067;48.114;11.694;2023-01-23T15:32:23;23.20;;;13.93;;
16502;SDS011;53067;48.114;11.694;2023-01-23T15:34:52;21.70;;;13.80;;
16502;SDS011;53067;48.114;11.694;2023-01-23T15:37:23;20.87;;;13.70;;
16502;SDS011;53067;48.114;11.694;2023-01-23T15:39:53;20.07;;;13.90;;
16502;SDS011;53067;48.114;11.694;2023-01-23T15:42:41;20.37;;;14.30;;
16502;SDS011;53067;48.114;11.694;2023-01-23T15:44:59;18.97;;;13.23;;
16502;SDS011;53067;48.114;11.694;2023-01-23T15:47:28;22.33;;;14.33;;
16502;SDS011;53067;48.114;11.694;2023-01-23T15:49:57;23.33;;;14.37;;
16502;SDS011;53067;48.114;11.694;2023-01-23T15:52:29;23.80;;;14.47;;
16502;SDS011;53067;48.114;11.694;2023-01-23T15:55:02;23.13;;;13.70;;
16502;SDS011;53067;48.114;11.694;2023-01-23T15:57:51;21.07;;;14.00;;
16502;SDS011;53067;48.114;11.694;2023-01-23T16:00:21;24.87;;;15.17;;
16502;SDS011;53067;48.114;11.694;2023-01-23T16:02:53;27.57;;;15.37;;
16502;SDS011;53067;48.114;11.694;2023-01-23T16:05:23;26.27;;;15.97;;
16502;SDS011;53067;48.114;11.694;2023-01-23T16:07:54;27.33;;;15.17;;
16502;SDS011;53067;48.114;11.694;2023-01-23T16:10:26;29.40;;;16.40;;
16502;SDS011;53067;48.114;11.694;2023-01-23T16:12:56;27.17;;;16.63;;
16502;SDS011;53067;48.114;11.694;2023-01-23T16:15:28;30.40;;;16.77;;